Time;durP1;ratioP1;P1;durP2;ratioP2;P2;SDS_P1;SDS_P2;PMS_P1;PMS_P2;Temp;Humidity;BMP_temperature;BMP_pressure;BME280_temperature;BME280_humidity;BME280_pressure;Samples;Min_cycle;Max_cycle;Signal;HPM_P1;HPM_P2
2023/02/10 00:00:17;;;;;;;5.20;2.60;;;18.30;46.40;;;;;;6156814;23;20642;-81
2023/02/10 00:02:43;;;;;;;4.95;2.45;;;18.30;46.70;;;;;;6156976;23;20163;-81
2023/02/10 00:05:08;;;;;;;4.70;2.78;;;18.30;46.80;;;;;;6106280;23;20163;-81
2023/02/10 00:07:34;;;;;;;4.38;2.90;;;18.30;46.70;;;;;;6156963;23;20448;-81
2023/02/10 00:10:00;;;;;;;3.22;2.30;;;18.30;46.80;;;;;;6156903;23;20622;-81
2023/02/10 00:12:25;;;;;;;3.83;2.38;;;18.30;46.60;;;;;;6131041;23;20495;-80
2023/02/10 00:14:51;;;;;;;3.53;2.38;;;18.30;46.60;;;;;;6106873;23;20532;-81
2023/02/10 00:17:17;;;;;;;6.10;2.55;;;18.30;46.70;;;;;;6131052;23;20451;-81
2023/02/10 00:19:42;;;;;;;4.72;2.63;;;18.30;46.90;;;;;;6157282;23;20210;-81
2023/02/10 00:22:08;;;;;;;4.38;2.30;;;18.20;46.70;;;;;;6130966;23;20146;-81
2023/02/10 00:24:34;;;;;;;4.13;2.20;;;18.30;46.70;;;;;;6156517;23;20568;-81
2023/02/10 00:27:01;;;;;;;3.70;2.40;;;18.30;46.80;;;;;;6130839;23;20136;-81
2023/02/10 00:29:27;;;;;;;3.65;2.20;;;18.30;46.70;;;;;;6082387;23;20172;-81
2023/02/10 00:31:52;;;;;;;5.60;2.60;;;18.30;46.70;;;;;;6130932;23;20194;-81
2023/02/10 00:34:18;;;;;;;5.70;2.28;;;18.20;46.80;;;;;;6157096;23;20136;-81
2023/02/10 00:36:44;;;;;;;3.88;2.30;;;18.20;46.70;;;;;;6130951;23;20147;-81
2023/02/10 00:39:13;;;;;;;6.20;2.45;;;18.20;46.80;;;;;;6105648;23;20199;-81
2023/02/10 00:41:40;;;;;;;3.83;2.60;;;18.20;46.80;;;;;;6156849;23;20136;-80
2023/02/10 00:44:06;;;;;;;3.50;2.45;;;18.20;46.90;;;;;;6130568;23;20191;-81
2023/02/10 00:46:31;;;;;;;4.25;2.55;;;18.20;46.90;;;;;;6156479;23;20467;-81
2023/02/10 00:48:57;;;;;;;4.47;2.40;;;18.20;46.70;;;;;;6156391;23;20142;-81
2023/02/10 00:51:22;;;;;;;4.53;2.40;;;18.20;46.90;;;;;;6130281;23;20226;-81
2023/02/10 00:53:50;;;;;;;5.18;2.60;;;18.20;46.80;;;;;;6156396;23;20139;-80
2023/02/10 00:56:16;;;;;;;3.75;2.20;;;18.20;46.90;;;;;;6130243;23;20163;-81
2023/02/10 00:58:42;;;;;;;6.05;2.58;;;18.20;46.90;;;;;;6130217;23;20155;-81
2023/02/10 01:01:08;;;;;;;3.55;2.20;;;18.20;46.90;;;;;;6130356;23;20139;-81
2023/02/10 01:03:34;;;;;;;5.57;2.13;;;18.20;46.80;;;;;;6130172;23;20163;-81
2023/02/10 01:06:00;;;;;;;6.82;2.40;;;18.20;46.90;;;;;;6105944;23;20139;-81
2023/02/10 01:08:25;;;;;;;3.50;2.22;;;18.20;46.80;;;;;;6130512;23;20135;-81
2023/02/10 01:11:03;;;;;;;5.38;2.35;;;18.20;47.00;;;;;;6130282;23;20207;-81
2023/02/10 01:13:29;;;;;;;4.55;2.17;;;18.20;47.00;;;;;;6156538;23;20473;-81
2023/02/10 01:15:55;;;;;;;4.35;2.38;;;18.20;47.00;;;;;;6156415;23;20598;-81
2023/02/10 01:18:21;;;;;;;4.18;2.50;;;18.20;47.00;;;;;;6156042;23;20524;-81
2023/02/10 01:20:46;;;;;;;3.50;2.33;;;18.20;47.40;;;;;;6130361;23;20136;-80
2023/02/10 01:23:12;;;;;;;3.03;2.40;;;18.10;47.40;;;;;;6156344;23;20163;-80
2023/02/10 01:25:38;;;;;;;3.53;2.35;;;18.10;47.10;;;;;;6156473;23;20472;-81
2023/02/10 01:28:04;;;;;;;3.58;2.20;;;18.10;47.30;;;;;;6130235;23;20136;-80
2023/02/10 01:30:30;;;;;;;3.30;2.30;;;18.10;47.20;;;;;;6130432;23;20139;-81
2023/02/10 01:32:56;;;;;;;5.18;2.47;;;18.10;47.50;;;;;;6156493;23;20202;-81
2023/02/10 01:35:21;;;;;;;3.42;2.15;;;18.10;47.30;;;;;;6106014;23;20215;-80
2023/02/10 01:37:47;;;;;;;3.78;2.10;;;18.10;47.50;;;;;;6156260;23;20147;-80
2023/02/10 01:40:13;;;;;;;3.00;2.38;;;18.10;47.40;;;;;;6129772;23;20230;-81
2023/02/10 01:42:40;;;;;;;3.70;2.40;;;18.10;47.30;;;;;;6156297;23;20144;-81
2023/02/10 01:45:25;;;;;;;6.03;2.70;;;18.10;47.20;;;;;;6130352;23;20247;-81
2023/02/10 01:47:51;;;;;;;4.05;2.38;;;18.10;47.20;;;;;;6155999;23;20190;-80
2023/02/10 01:50:18;;;;;;;3.88;2.15;;;18.10;47.40;;;;;;6081503;23;20482;-81
2023/02/10 01:52:43;;;;;;;3.67;2.30;;;18.10;47.30;;;;;;6129710;23;20152;-81
2023/02/10 01:55:11;;;;;;;6.47;2.33;;;18.10;47.40;;;;;;6081627;23;20166;-81
2023/02/10 01:57:37;;;;;;;3.25;2.58;;;18.10;47.40;;;;;;6129850;23;20187;-80
2023/02/10 02:00:04;;;;;;;4.72;2.40;;;18.10;47.70;;;;;;6155938;23;20150;-81
2023/02/10 02:02:29;;;;;;;3.35;2.10;;;18.10;47.50;;;;;;6081519;23;20641;-81
2023/02/10 02:04:59;;;;;;;3.80;2.47;;;18.10;47.40;;;;;;6155690;23;20242;-81
2023/02/10 02:07:27;;;;;;;3.38;2.30;;;18.10;47.40;;;;;;6155832;23;20143;-80
2023/02/10 02:09:52;;;;;;;4.10;2.58;;;18.10;47.60;;;;;;6130394;23;20156;-81
2023/02/10 02:12:40;;;;;;;3.33;2.50;;;18.10;47.50;;;;;;6129768;23;20135;-81
2023/02/10 02:15:14;;;;;;;4.38;2.70;;;18.00;47.50;;;;;;6133791;23;20601;-81
2023/02/10 02:18:00;;;;;;;4.68;2.30;;;18.00;47.70;;;;;;6156069;23;20635;-81
2023/02/10 02:21:00;;;;;;;4.70;2.50;;;18.00;47.50;;;;;;6156558;23;20519;-80
2023/02/10 02:23:43;;;;;;;3.53;2.40;;;18.00;47.70;;;;;;6157578;23;20167;-80
2023/02/10 02:26:33;;;;;;;2.95;1.90;;;18.00;47.50;;;;;;6131650;23;20552;-81
2023/02/10 02:29:16;;;;;;;2.85;2.20;;;18.00;47.50;;;;;;6108514;23;20142;-81
2023/02/10 02:32:00;;;;;;;3.95;2.35;;;18.00;47.50;;;;;;6131598;23;20155;-81
2023/02/10 02:34:38;;;;;;;3.70;2.30;;;18.10;47.40;;;;;;6132489;23;20151;-81
2023/02/10 02:37:20;;;;;;;3.30;2.10;;;18.00;47.60;;;;;;6131720;23;20142;-81
2023/02/10 02:39:48;;;;;;;4.38;2.10;;;18.00;47.30;;;;;;6134907;23;20194;-81
2023/02/10 02:42:21;;;;;;;2.60;2.20;;;18.00;47.30;;;;;;6131717;23;20206;-81
2023/02/10 02:45:00;;;;;;;7.93;2.83;;;18.10;47.70;;;;;;6131594;23;20172;-80
2023/02/10 02:47:52;;;;;;;4.97;2.42;;;18.00;47.50;;;;;;6134247;23;20518;-81
2023/02/10 02:50:30;;;;;;;4.38;2.03;;;18.00;47.60;;;;;;6157201;23;20228;-81
2023/02/10 02:53:21;;;;;;;3.15;2.30;;;18.00;47.40;;;;;;6157550;23;20135;-81
2023/02/10 02:56:20;;;;;;;3.05;2.17;;;18.00;47.60;;;;;;6157428;23;20590;-80
2023/02/10 02:58:54;;;;;;;3.15;2.30;;;17.90;47.70;;;;;;6157432;23;20143;-81
2023/02/10 03:01:25;;;;;;;4.53;2.70;;;18.00;47.80;;;;;;6157508;23;20147;-81
2023/02/10 03:03:52;;;;;;;3.42;2.20;;;18.00;47.90;;;;;;6131848;23;20170;-81
2023/02/10 03:06:18;;;;;;;3.28;2.40;;;18.00;47.80;;;;;;6131386;23;20140;-80
2023/02/10 03:08:43;;;;;;;3.38;2.22;;;18.00;47.50;;;;;;6131491;23;20136;-81
2023/02/10 03:11:09;;;;;;;2.85;1.85;;;18.00;47.70;;;;;;6157317;23;20484;-81
2023/02/10 03:13:35;;;;;;;3.03;2.20;;;17.90;48.40;;;;;;6157605;23;20506;-83
2023/02/10 03:16:00;;;;;;;3.30;2.10;;;17.90;47.80;;;;;;6106961;23;20479;-81
2023/02/10 03:18:26;;;;;;;3.72;2.38;;;18.00;47.90;;;;;;6157229;23;20171;-80
2023/02/10 03:20:52;;;;;;;3.17;2.30;;;17.90;47.90;;;;;;6157328;23;20139;-80
2023/02/10 03:23:17;;;;;;;2.30;1.90;;;17.90;48.10;;;;;;6157149;23;20139;-81
2023/02/10 03:25:45;;;;;;;3.17;2.30;;;17.90;48.10;;;;;;6157193;23;20587;-81
2023/02/10 03:28:10;;;;;;;5.38;2.38;;;17.90;48.00;;;;;;6106792;23;20515;-81
2023/02/10 03:30:37;;;;;;;3.63;2.35;;;17.80;48.10;;;;;;6131190;23;20143;-81
2023/02/10 03:33:02;;;;;;;3.47;2.28;;;17.90;48.10;;;;;;6130850;23;20211;-81
2023/02/10 03:35:28;;;;;;;2.67;2.00;;;17.80;48.30;;;;;;6157390;23;20563;-80
2023/02/10 03:37:54;;;;;;;2.55;2.00;;;17.90;48.20;;;;;;6157116;23;20170;-81
2023/02/10 03:40:19;;;;;;;3.65;2.03;;;17.90;48.40;;;;;;6156935;23;20642;-80
2023/02/10 03:42:45;;;;;;;3.55;2.17;;;17.80;48.30;;;;;;6157071;23;20548;-81
2023/02/10 03:45:11;;;;;;;3.60;2.30;;;17.80;48.30;;;;;;6157046;23;20175;-81
2023/02/10 03:47:36;;;;;;;3.17;2.17;;;17.80;48.60;;;;;;6157116;23;20474;-80
2023/02/10 03:50:02;;;;;;;2.55;2.30;;;17.80;48.50;;;;;;6156958;23;20559;-80
2023/02/10 03:52:28;;;;;;;3.47;2.20;;;17.80;48.70;;;;;;6131400;23;20495;-81
2023/02/10 03:54:53;;;;;;;3.58;2.42;;;17.80;48.90;;;;;;6156957;23;20215;-80
2023/02/10 03:57:19;;;;;;;3.38;2.20;;;17.80;48.70;;;;;;6106572;23;20594;-81
2023/02/10 03:59:44;;;;;;;3.17;2.00;;;17.80;48.30;;;;;;6131051;23;20214;-80
2023/02/10 04:02:10;;;;;;;3.33;2.17;;;17.80;48.50;;;;;;6156882;23;20635;-80
2023/02/10 04:04:36;;;;;;;3.58;2.30;;;17.80;48.40;;;;;;6157052;23;20626;-81
2023/02/10 04:07:02;;;;;;;3.38;2.10;;;17.80;48.50;;;;;;6156921;23;20174;-80
2023/02/10 04:09:29;;;;;;;2.80;2.00;;;17.80;48.70;;;;;;6130791;23;20164;-81
2023/02/10 04:11:54;;;;;;;3.33;2.03;;;17.80;48.30;;;;;;6106330;23;20148;-80
2023/02/10 04:14:20;;;;;;;2.22;1.88;;;17.80;48.30;;;;;;6156676;23;20135;-80
2023/02/10 04:16:46;;;;;;;3.50;2.35;;;17.80;48.10;;;;;;6156744;23;20131;-81
2023/02/10 04:19:11;;;;;;;3.17;2.22;;;17.80;48.30;;;;;;6156724;23;20638;-81
2023/02/10 04:21:37;;;;;;;3.22;2.20;;;17.80;48.30;;;;;;6106382;23;20564;-81
2023/02/10 04:24:03;;;;;;;2.75;2.00;;;17.80;48.30;;;;;;6130721;23;20190;-81
2023/02/10 04:26:28;;;;;;;2.95;2.22;;;17.80;48.50;;;;;;6130658;23;20179;-81
2023/02/10 04:28:54;;;;;;;5.05;2.20;;;17.80;48.60;;;;;;6130686;23;20132;-81
2023/02/10 04:31:20;;;;;;;2.10;1.85;;;17.80;49.20;;;;;;6130741;23;20132;-80
2023/02/10 04:33:45;;;;;;;3.17;1.90;;;17.70;48.70;;;;;;6106234;23;20597;-80
2023/02/10 04:36:11;;;;;;;2.83;2.15;;;17.80;48.70;;;;;;6130951;23;20144;-81
2023/02/10 04:38:37;;;;;;;3.03;1.90;;;17.70;48.70;;;;;;6156763;23;20505;-81
2023/02/10 04:41:04;;;;;;;3.83;2.22;;;17.70;48.60;;;;;;6156794;23;20139;-81
2023/02/10 04:43:31;;;;;;;3.80;2.20;;;17.70;48.80;;;;;;6156349;23;20163;-81
2023/02/10 04:45:56;;;;;;;2.40;2.03;;;17.70;48.30;;;;;;6130280;23;20143;-81
2023/02/10 04:48:22;;;;;;;3.15;2.10;;;17.70;48.80;;;;;;6130391;23;20135;-81
2023/02/10 04:50:48;;;;;;;3.00;2.20;;;17.70;48.50;;;;;;6130540;23;20582;-80
2023/02/10 04:53:13;;;;;;;3.25;1.85;;;17.70;48.50;;;;;;6156343;23;20136;-81
2023/02/10 04:55:39;;;;;;;3.50;2.05;;;17.70;48.60;;;;;;6156312;23;20139;-80
2023/02/10 04:58:05;;;;;;;2.83;2.10;;;17.70;48.90;;;;;;6130522;23;20556;-81
2023/02/10 05:00:31;;;;;;;3.38;2.22;;;17.70;48.50;;;;;;6105923;23;20218;-81
2023/02/10 05:02:56;;;;;;;2.90;1.85;;;17.70;48.80;;;;;;6105954;23;20139;-81
2023/02/10 05:05:24;;;;;;;2.97;2.10;;;17.70;48.70;;;;;;6156194;23;20174;-80
2023/02/10 05:07:50;;;;;;;3.75;2.20;;;17.70;48.70;;;;;;6156237;23;20152;-80
2023/02/10 05:10:16;;;;;;;2.42;1.80;;;17.70;48.70;;;;;;6156311;23;20444;-80
2023/02/10 05:12:41;;;;;;;3.25;2.17;;;17.70;48.70;;;;;;6156272;23;20238;-81
2023/02/10 05:15:08;;;;;;;3.35;2.08;;;17.70;48.60;;;;;;6156100;23;20135;-80
2023/02/10 05:17:34;;;;;;;2.92;2.08;;;17.70;48.80;;;;;;6156226;23;20143;-81
2023/02/10 05:19:59;;;;;;;4.55;2.13;;;17.70;48.60;;;;;;6130228;23;20567;-80
2023/02/10 05:22:29;;;;;;;2.90;2.10;;;17.70;48.80;;;;;;6156199;23;20144;-81
2023/02/10 05:24:56;;;;;;;2.78;1.98;;;17.70;48.70;;;;;;6156293;23;20163;-80
2023/02/10 05:27:23;;;;;;;2.70;2.13;;;17.70;48.60;;;;;;6156433;23;20171;-81
2023/02/10 05:29:49;;;;;;;3.08;2.15;;;17.70;48.70;;;;;;6156115;23;20132;-81
2023/02/10 05:32:14;;;;;;;4.13;2.00;;;17.70;48.80;;;;;;6130273;23;20142;-80
2023/02/10 05:34:40;;;;;;;3.28;2.13;;;17.70;48.80;;;;;;6130003;23;20136;-81
2023/02/10 05:37:06;;;;;;;2.85;1.90;;;17.70;49.00;;;;;;6130033;23;20238;-80
2023/02/10 05:39:31;;;;;;;2.60;1.90;;;17.70;49.10;;;;;;6129670;23;20629;-80
2023/02/10 05:41:57;;;;;;;3.45;1.90;;;17.70;48.90;;;;;;6106062;23;20157;-80
2023/02/10 05:44:24;;;;;;;3.00;2.00;;;17.70;48.80;;;;;;6130479;23;20497;-80
2023/02/10 05:46:51;;;;;;;2.70;2.00;;;17.60;49.00;;;;;;6155498;23;20132;-79
2023/02/10 05:49:17;;;;;;;2.83;1.83;;;17.60;48.70;;;;;;6155463;23;20140;-80
2023/02/10 05:51:42;;;;;;;3.53;2.00;;;17.70;48.90;;;;;;6105641;23;20506;-80
2023/02/10 05:54:08;;;;;;;3.40;2.20;;;17.70;48.40;;;;;;6129819;23;20167;-80
2023/02/10 05:56:34;;;;;;;2.15;1.80;;;17.70;48.70;;;;;;6105770;23;20582;-80
2023/02/10 05:59:00;;;;;;;3.47;2.00;;;17.70;48.60;;;;;;6105528;23;20135;-81
2023/02/10 06:01:26;;;;;;;3.75;2.00;;;17.70;48.60;;;;;;6155963;23;20146;-80
2023/02/10 06:03:51;;;;;;;2.58;1.90;;;17.70;48.70;;;;;;6129696;23;20495;-80
2023/02/10 06:06:17;;;;;;;2.53;1.98;;;17.70;49.40;;;;;;6129596;23;20139;-80
2023/02/10 06:08:43;;;;;;;2.55;1.90;;;17.70;48.90;;;;;;6129966;23;20142;-80
2023/02/10 06:11:08;;;;;;;2.80;2.00;;;17.70;48.80;;;;;;6155686;23;20136;-81
2023/02/10 06:13:34;;;;;;;2.35;2.00;;;17.70;48.90;;;;;;6156135;23;20158;-80
2023/02/10 06:16:01;;;;;;;4.65;1.80;;;17.70;48.90;;;;;;6129945;23;20135;-80
2023/02/10 06:18:28;;;;;;;6.07;2.65;;;17.70;48.60;;;;;;6155635;23;20235;-80
2023/02/10 06:20:53;;;;;;;8.02;1.90;;;17.70;48.60;;;;;;6082094;23;20490;-80
2023/02/10 06:23:20;;;;;;;6.05;2.50;;;17.70;48.70;;;;;;6157797;23;20162;-81
2023/02/10 06:25:46;;;;;;;4.10;2.00;;;17.70;48.90;;;;;;6129888;23;20226;-80
2023/02/10 06:28:12;;;;;;;4.45;2.00;;;17.70;48.80;;;;;;6103885;23;20170;-81
2023/02/10 06:30:37;;;;;;;3.47;1.70;;;17.70;48.70;;;;;;6154842;23;20136;-82
2023/02/10 06:33:03;;;;;;;5.53;2.00;;;17.70;48.80;;;;;;6155073;23;20135;-81
2023/02/10 06:35:28;;;;;;;3.13;1.85;;;17.70;48.90;;;;;;6154733;23;20448;-81
2023/02/10 06:37:54;;;;;;;2.95;1.75;;;17.70;48.90;;;;;;6129182;23;20143;-81
2023/02/10 06:40:20;;;;;;;4.18;2.10;;;17.70;48.80;;;;;;6154684;23;20558;-81
2023/02/10 06:42:45;;;;;;;2.45;1.90;;;17.70;48.60;;;;;;6129649;23;20147;-81
2023/02/10 06:45:11;;;;;;;1.98;1.70;;;17.70;48.70;;;;;;6105084;23;20175;-81
2023/02/10 06:47:38;;;;;;;2.80;1.90;;;17.70;48.70;;;;;;6155968;23;20150;-81
2023/02/10 06:50:04;;;;;;;4.03;2.10;;;17.70;48.70;;;;;;6155541;23;20132;-81
2023/02/10 06:52:31;;;;;;;2.67;2.05;;;17.70;48.70;;;;;;6129713;23;20142;-81
2023/02/10 06:54:57;;;;;;;2.33;1.80;;;17.70;48.60;;;;;;6155586;23;20140;-81
2023/02/10 06:57:22;;;;;;;3.05;2.10;;;17.70;48.50;;;;;;6129706;23;20215;-82
2023/02/10 06:59:48;;;;;;;7.45;2.00;;;17.70;48.70;;;;;;6129736;23;20136;-81
2023/02/10 07:02:14;;;;;;;3.35;1.90;;;17.70;48.70;;;;;;6129612;23;20167;-81
2023/02/10 07:04:39;;;;;;;2.65;1.90;;;17.70;48.90;;;;;;6104985;23;20514;-81
2023/02/10 07:07:05;;;;;;;5.05;2.00;;;17.70;48.80;;;;;;6156940;23;20176;-81
2023/02/10 07:09:31;;;;;;;2.35;1.70;;;17.70;48.80;;;;;;6131550;23;20160;-81
2023/02/10 07:11:58;;;;;;;4.07;1.90;;;17.70;48.70;;;;;;6157397;23;20203;-81
2023/02/10 07:14:23;;;;;;;2.97;1.70;;;17.70;48.60;;;;;;6131321;23;20170;-81
2023/02/10 07:16:49;;;;;;;7.18;2.10;;;17.70;48.60;;;;;;6157243;23;20135;-81
2023/02/10 07:19:15;;;;;;;3.53;1.98;;;17.80;48.90;;;;;;6157378;23;20168;-81
2023/02/10 07:21:40;;;;;;;3.85;2.15;;;17.70;48.90;;;;;;6157499;23;20144;-82
2023/02/10 07:24:06;;;;;;;2.72;2.00;;;17.70;48.90;;;;;;6131133;23;20199;-82
2023/02/10 07:26:32;;;;;;;2.63;1.90;;;17.70;48.70;;;;;;6157327;23;20167;-81
2023/02/10 07:28:57;;;;;;;4.88;2.22;;;17.70;48.80;;;;;;6157473;23;20139;-81
2023/02/10 07:31:23;;;;;;;2.22;1.70;;;17.70;48.70;;;;;;6157275;23;20555;-82
2023/02/10 07:33:49;;;;;;;2.00;1.35;;;17.70;48.30;;;;;;6131162;23;20491;-81
2023/02/10 07:36:14;;;;;;;2.42;1.65;;;17.80;47.80;;;;;;6157082;23;20214;-82
2023/02/10 07:38:40;;;;;;;4.20;1.75;;;17.90;47.70;;;;;;6157373;23;20214;-81
2023/02/10 07:41:06;;;;;;;2.38;1.67;;;17.90;47.70;;;;;;6157165;23;20186;-82
2023/02/10 07:43:32;;;;;;;3.95;1.45;;;18.00;47.70;;;;;;6131165;23;20567;-81
2023/02/10 07:45:58;;;;;;;2.70;1.60;;;18.00;47.50;;;;;;6156953;23;20142;-82
2023/02/10 07:48:23;;;;;;;2.30;1.70;;;18.10;47.10;;;;;;6157240;23;20139;-79
2023/02/10 07:50:51;;;;;;;3.47;1.60;;;18.10;47.10;;;;;;6106618;23;20182;-80
2023/02/10 07:53:17;;;;;;;5.03;1.48;;;18.10;47.30;;;;;;6131664;23;20235;-80
2023/02/10 07:55:42;;;;;;;2.85;1.60;;;18.20;46.70;;;;;;6131606;23;20215;-80
2023/02/10 07:58:08;;;;;;;5.28;1.85;;;18.20;47.00;;;;;;6157438;23;20560;-80
2023/02/10 08:00:34;;;;;;;2.35;1.60;;;18.20;46.90;;;;;;6130912;23;20164;-81
2023/02/10 08:02:59;;;;;;;4.22;1.90;;;18.20;47.10;;;;;;6156991;23;20135;-80
2023/02/10 08:05:26;;;;;;;2.20;1.50;;;18.20;47.10;;;;;;6132063;23;20163;-82
2023/02/10 08:07:52;;;;;;;3.92;1.52;;;18.20;47.20;;;;;;6132244;23;20147;-81
2023/02/10 08:10:18;;;;;;;1.55;1.30;;;18.20;46.80;;;;;;6131946;23;20168;-80
2023/02/10 08:12:46;;;;;;;2.00;1.50;;;18.20;46.80;;;;;;6132075;23;20139;-80
2023/02/10 08:15:11;;;;;;;1.73;1.33;;;18.20;47.20;;;;;;6131061;23;20132;-80
2023/02/10 08:17:38;;;;;;;2.58;1.30;;;18.20;46.40;;;;;;6106219;23;20294;-80
2023/02/10 08:20:05;;;;;;;2.10;1.50;;;18.30;45.80;;;;;;6131483;23;20143;-80
2023/02/10 08:22:30;;;;;;;1.90;1.40;;;18.30;45.30;;;;;;6130923;23;20140;-80
2023/02/10 08:24:56;;;;;;;4.00;1.30;;;18.30;45.60;;;;;;6131073;23;20514;-80
2023/02/10 08:27:22;;;;;;;3.72;1.65;;;18.40;45.30;;;;;;6156973;23;20215;-80
2023/02/10 08:29:47;;;;;;;2.25;1.45;;;18.40;45.80;;;;;;6131834;23;20288;-80
2023/02/10 08:32:18;;;;;;;2.20;1.35;;;18.40;45.70;;;;;;6129421;23;20468;-81
2023/02/10 08:34:47;;;;;;;3.92;1.60;;;18.40;45.70;;;;;;6131104;23;20136;-80
2023/02/10 08:37:13;;;;;;;4.18;1.50;;;18.50;46.20;;;;;;6129899;23;20144;-80
2023/02/10 08:39:38;;;;;;;4.15;1.70;;;18.50;45.70;;;;;;6130619;23;20217;-81
2023/02/10 08:42:04;;;;;;;2.28;1.33;;;18.50;45.80;;;;;;6131050;23;20148;-82
2023/02/10 08:44:30;;;;;;;2.55;1.30;;;18.50;45.60;;;;;;6131191;23;20220;-81
2023/02/10 08:46:55;;;;;;;1.58;1.40;;;18.50;45.90;;;;;;6156972;23;20144;-80
2023/02/10 08:49:24;;;;;;;3.03;1.38;;;18.40;46.40;;;;;;6130530;23;20147;-81
2023/02/10 08:51:51;;;;;;;2.75;1.25;;;18.40;46.40;;;;;;6156814;23;20136;-81
2023/02/10 08:54:17;;;;;;;2.08;1.23;;;18.40;46.20;;;;;;6130444;23;20144;-81
2023/02/10 08:56:43;;;;;;;3.75;1.10;;;18.40;46.10;;;;;;6130466;23;20291;-81
2023/02/10 08:59:08;;;;;;;2.00;1.40;;;18.50;45.70;;;;;;6156440;23;20140;-81
2023/02/10 09:01:34;;;;;;;2.60;1.30;;;18.40;46.60;;;;;;6156710;23;20568;-81
2023/02/10 09:04:01;;;;;;;5.50;1.30;;;18.40;46.10;;;;;;6157229;23;20198;-81
2023/02/10 09:06:32;;;;;;;4.85;1.65;;;18.50;45.70;;;;;;6106886;23;20147;-81
2023/02/10 09:08:59;;;;;;;2.97;1.27;;;18.50;46.10;;;;;;6131745;23;20642;-81
2023/02/10 09:11:25;;;;;;;3.47;1.60;;;18.50;46.20;;;;;;6157100;23;20159;-80
2023/02/10 09:13:51;;;;;;;9.50;2.13;;;18.50;46.20;;;;;;6157192;23;20136;-81
2023/02/10 09:16:17;;;;;;;10.82;1.73;;;18.50;46.60;;;;;;6157048;23;20146;-81
2023/02/10 09:18:42;;;;;;;5.70;1.45;;;18.50;46.10;;;;;;6156410;23;20211;-81
2023/02/10 09:21:08;;;;;;;5.20;1.33;;;18.50;46.10;;;;;;6156271;23;20440;-81
2023/02/10 09:23:34;;;;;;;11.00;1.50;;;18.60;45.90;;;;;;6156375;23;20175;-81
2023/02/10 09:25:59;;;;;;;6.53;1.58;;;18.60;46.50;;;;;;6156109;23;20160;-80
2023/02/10 09:28:26;;;;;;;5.25;1.40;;;18.60;45.40;;;;;;6155886;23;20136;-81
2023/02/10 09:30:51;;;;;;;6.07;1.42;;;18.60;46.00;;;;;;6105935;23;20135;-81
2023/02/10 09:33:17;;;;;;;7.72;1.55;;;18.60;45.10;;;;;;6131399;23;20222;-81
2023/02/10 09:35:43;;;;;;;6.28;1.42;;;18.70;45.80;;;;;;6132136;23;20546;-81
2023/02/10 09:38:10;;;;;;;4.97;1.50;;;18.70;45.70;;;;;;6107032;23;20147;-81
2023/02/10 09:40:47;;;;;;;5.55;1.42;;;18.70;46.10;;;;;;6130797;23;20206;-82
2023/02/10 09:43:26;;;;;;;7.88;1.45;;;18.60;45.70;;;;;;6131520;23;20179;-81
2023/02/10 09:45:56;;;;;;;4.50;1.38;;;18.70;46.20;;;;;;6133348;23;20191;-81
2023/02/10 09:48:42;;;;;;;5.22;1.60;;;18.60;46.00;;;;;;6107685;23;20163;-81
2023/02/10 09:51:16;;;;;;;5.03;1.33;;;18.60;46.30;;;;;;6130996;23;20486;-82
2023/02/10 09:53:41;;;;;;;5.28;1.40;;;18.60;46.20;;;;;;6131937;23;20150;-81
2023/02/10 09:56:12;;;;;;;5.45;1.20;;;18.60;45.70;;;;;;6131677;23;20222;-81
2023/02/10 09:58:49;;;;;;;4.72;1.40;;;18.60;46.00;;;;;;6107281;23;20144;-81
2023/02/10 10:01:25;;;;;;;5.18;1.48;;;18.60;46.10;;;;;;6107047;23;20153;-81
2023/02/10 10:03:59;;;;;;;4.20;1.13;;;18.60;46.20;;;;;;6132352;23;20263;-81
2023/02/10 10:06:29;;;;;;;2.60;1.40;;;18.60;46.00;;;;;;6156870;23;20131;-81
2023/02/10 10:09:28;;;;;;;3.22;1.23;;;18.60;45.80;;;;;;6131274;23;20455;-81
2023/02/10 10:11:54;;;;;;;2.95;1.42;;;18.70;45.40;;;;;;6137643;23;20226;-80
2023/02/10 10:14:22;;;;;;;2.00;1.17;;;18.70;45.50;;;;;;6110125;23;20132;-81
2023/02/10 10:17:18;;;;;;;1.70;1.05;;;18.70;45.50;;;;;;6111025;23;20139;-81
2023/02/10 10:20:17;;;;;;;2.00;1.30;;;18.70;45.10;;;;;;6111213;23;20155;-81
2023/02/10 10:23:07;;;;;;;3.30;1.33;;;18.70;45.60;;;;;;6156944;23;20139;-80
2023/02/10 10:25:49;;;;;;;2.28;0.75;;;18.70;45.30;;;;;;6111053;23;20186;-80
2023/02/10 10:28:37;;;;;;;3.20;1.38;;;18.80;44.40;;;;;;6156510;23;20132;-80
2023/02/10 10:31:14;;;;;;;3.67;0.90;;;18.70;45.50;;;;;;6134283;23;20143;-81
2023/02/10 10:33:47;;;;;;;1.25;0.90;;;18.80;45.20;;;;;;6155574;23;20187;-80
2023/02/10 10:36:16;;;;;;;2.15;0.75;;;18.70;45.20;;;;;;6155552;23;20143;-80
2023/02/10 10:38:50;;;;;;;1.50;0.95;;;18.80;44.20;;;;;;6105377;23;20147;-81
2023/02/10 10:41:16;;;;;;;1.42;1.10;;;18.80;45.50;;;;;;6106709;23;20171;-80
2023/02/10 10:43:47;;;;;;;1.50;0.90;;;18.80;44.70;;;;;;6107640;23;20178;-81
2023/02/10 10:46:37;;;;;;;3.47;1.38;;;18.80;45.00;;;;;;6107329;23;20231;-80
2023/02/10 10:49:03;;;;;;;4.05;0.98;;;18.80;45.20;;;;;;6131417;23;20564;-81
2023/02/10 10:51:29;;;;;;;0.95;0.70;;;18.80;44.90;;;;;;6157099;23;20139;-81
2023/02/10 10:53:56;;;;;;;1.52;0.90;;;18.80;44.80;;;;;;6131467;23;20136;-81
2023/02/10 10:56:44;;;;;;;1.58;0.95;;;18.80;45.00;;;;;;6132368;23;20631;-81
2023/02/10 10:59:16;;;;;;;1.40;0.90;;;18.80;45.50;;;;;;6112898;23;20155;-81
2023/02/10 11:01:44;;;;;;;1.75;0.90;;;18.70;45.10;;;;;;6108661;23;20147;-81
2023/02/10 11:04:16;;;;;;;1.02;0.80;;;18.70;45.20;;;;;;6084389;23;20562;-81
2023/02/10 11:06:43;;;;;;;2.17;1.17;;;18.80;45.00;;;;;;6108357;23;20146;-81
2023/02/10 11:09:32;;;;;;;1.60;1.13;;;18.70;45.20;;;;;;6107469;23;20215;-81
2023/02/10 11:12:04;;;;;;;2.42;1.15;;;18.70;45.00;;;;;;6132847;23;20131;-81
2023/02/10 11:14:30;;;;;;;1.15;0.80;;;18.70;45.10;;;;;;6157255;23;20611;-81
2023/02/10 11:17:00;;;;;;;1.40;1.00;;;18.70;44.70;;;;;;6082133;23;20193;-80
2023/02/10 11:19:30;;;;;;;1.23;1.02;;;18.80;45.00;;;;;;6157148;23;20155;-80
2023/02/10 11:21:56;;;;;;;1.10;0.98;;;18.70;45.10;;;;;;6131940;23;20167;-80
2023/02/10 11:24:25;;;;;;;1.67;0.82;;;18.70;45.00;;;;;;6107751;23;20167;-80
2023/02/10 11:26:56;;;;;;;0.95;0.88;;;18.80;44.80;;;;;;6131551;23;20175;-80
2023/02/10 11:29:22;;;;;;;2.17;0.80;;;18.70;44.40;;;;;;6156372;23;20132;-80
2023/02/10 11:31:49;;;;;;;2.40;0.90;;;18.70;44.60;;;;;;6131200;23;20151;-80
2023/02/10 11:34:32;;;;;;;2.97;0.80;;;18.80;44.80;;;;;;6156562;23;20151;-80
2023/02/10 11:36:59;;;;;;;3.25;0.90;;;18.80;44.70;;;;;;6156447;23;20163;-81
2023/02/10 11:39:34;;;;;;;1.42;0.70;;;18.80;44.00;;;;;;6130797;23;20627;-80
2023/02/10 11:42:08;;;;;;;1.55;0.80;;;18.80;44.60;;;;;;6130817;23;20131;-80
2023/02/10 11:44:34;;;;;;;2.20;0.85;;;18.70;43.90;;;;;;6082270;23;20181;-81
2023/02/10 11:47:03;;;;;;;1.42;0.80;;;18.90;43.90;;;;;;6156637;23;20132;-81
2023/02/10 11:49:32;;;;;;;1.30;1.00;;;18.90;44.40;;;;;;6130758;23;20148;-81
2023/02/10 11:51:59;;;;;;;2.22;0.80;;;18.90;43.70;;;;;;6130796;23;20170;-81
2023/02/10 11:54:25;;;;;;;1.30;0.82;;;18.90;44.00;;;;;;6082347;23;20206;-81
2023/02/10 11:59:56;;;;;;;5.85;1.30;;;18.90;43.90;;;;;;6135487;23;20150;-81
2023/02/10 12:02:49;;;;;;;2.47;1.00;;;18.90;44.10;;;;;;6132706;23;20151;-81
2023/02/10 12:05:46;;;;;;;5.97;0.90;;;18.90;44.10;;;;;;6130663;23;20166;-82
2023/02/10 12:08:40;;;;;;;4.78;0.90;;;18.90;44.20;;;;;;6130371;23;20147;-82
2023/02/10 12:11:19;;;;;;;4.82;0.90;;;18.90;44.10;;;;;;6156555;23;20151;-82
2023/02/10 12:14:02;;;;;;;3.55;0.80;;;18.80;44.10;;;;;;6129950;23;20191;-81
2023/02/10 12:16:42;;;;;;;2.45;0.80;;;18.80;43.70;;;;;;6156497;23;20147;-82
2023/02/10 12:19:25;;;;;;;2.72;0.98;;;18.80;43.70;;;;;;6129886;23;20139;-81
2023/02/10 12:22:08;;;;;;;6.05;1.00;;;18.80;43.60;;;;;;6107373;23;20460;-81
2023/02/10 12:24:56;;;;;;;18.67;1.63;;;18.80;43.70;;;;;;6132949;23;20171;-80
2023/02/10 12:27:56;;;;;;;11.43;1.10;;;18.90;43.60;;;;;;6155658;23;20132;-81
2023/02/10 12:30:45;;;;;;;7.00;0.90;;;18.80;43.40;;;;;;6156785;23;20135;-81
2023/02/10 12:33:41;;;;;;;4.60;0.88;;;18.90;43.20;;;;;;6156847;23;20131;-81
2023/02/10 12:36:22;;;;;;;4.25;0.90;;;18.80;43.10;;;;;;6112432;23;20207;-82
2023/02/10 12:39:08;;;;;;;4.22;0.98;;;18.90;43.10;;;;;;6130792;23;20143;-81
2023/02/10 12:42:06;;;;;;;6.13;0.95;;;18.90;43.30;;;;;;6131280;23;20151;-81
2023/02/10 12:44:53;;;;;;;4.78;0.98;;;18.90;43.00;;;;;;6157126;23;20179;-81
2023/02/10 12:47:28;;;;;;;2.40;0.90;;;18.90;43.90;;;;;;6130322;23;20564;-81
2023/02/10 12:50:03;;;;;;;6.82;0.93;;;18.90;42.80;;;;;;6156405;23;20595;-80
2023/02/10 12:52:37;;;;;;;6.35;1.30;;;18.90;42.90;;;;;;6131339;23;20217;-81
2023/02/10 12:55:16;;;;;;;1.98;1.05;;;18.90;42.90;;;;;;6156659;23;20136;-81
2023/02/10 12:57:45;;;;;;;7.35;0.80;;;18.90;42.20;;;;;;6156436;23;20222;-81
2023/02/10 13:00:23;;;;;;;7.65;0.95;;;19.00;42.10;;;;;;6156343;23;20139;-81